Time;durP1;ratioP1;P1;durP2;ratioP2;P2;SDS_P1;SDS_P2;PMS_P1;PMS_P2;Temp;Humidity;BMP_temperature;BMP_pressure;BME280_temperature;BME280_humidity;BME280_pressure;Samples;Min_cycle;Max_cycle;Signal;HPM_P1;HPM_P2
2023/10/27 00:01:14;;;;;;;7.80;3.23;;;;;;;17.39;87.91;93917.91;5075907;28;20481;-77
2023/10/27 00:03:41;;;;;;;7.60;3.47;;;;;;;17.43;88.92;93921.81;5076102;28;20441;-77
2023/10/27 00:06:08;;;;;;;7.27;4.30;;;;;;;17.44;88.70;93922.63;5075828;28;20457;-77
2023/10/27 00:08:36;;;;;;;3.90;3.53;;;;;;;17.50;88.38;93917.34;5076067;28;20473;-77
2023/10/27 00:11:05;;;;;;;7.57;4.13;;;;;;;17.54;87.94;93912.47;5075882;28;20448;-76
2023/10/27 00:13:32;;;;;;;10.40;4.40;;;;;;;17.58;87.57;93911.06;5075786;28;20914;-77
2023/10/27 00:15:59;;;;;;;8.53;3.90;;;;;;;17.62;87.70;93912.31;5040528;28;20477;-77
2023/10/27 00:18:25;;;;;;;5.40;3.60;;;;;;;17.67;87.31;93912.59;5075369;28;20448;-77
2023/10/27 00:20:52;;;;;;;5.20;3.10;;;;;;;17.51;86.26;93911.03;5075855;28;20444;-77
2023/10/27 00:23:21;;;;;;;7.50;4.07;;;;;;;17.53;87.42;93921.44;5075483;28;20437;-77
2023/10/27 00:25:51;;;;;;;9.63;4.30;;;;;;;17.48;87.41;93913.25;5075480;28;20908;-76
2023/10/27 00:28:18;;;;;;;9.70;4.60;;;;;;;17.37;87.59;93903.22;5075637;28;20481;-77
2023/10/27 00:30:45;;;;;;;7.60;3.97;;;;;;;17.06;89.69;93893.00;5075476;28;20793;-77
2023/10/27 00:33:12;;;;;;;7.00;3.83;;;;;;;16.95;89.76;93884.59;5075224;28;20492;-77
2023/10/27 00:35:38;;;;;;;9.57;3.50;;;;;;;17.02;89.22;93882.78;5075512;28;20436;-77
2023/10/27 00:38:05;;;;;;;5.10;3.67;;;;;;;16.87;89.69;93894.53;5075633;28;20505;-77
2023/10/27 00:40:32;;;;;;;5.20;3.57;;;;;;;16.95;90.69;93899.66;5075240;28;20491;-78
2023/10/27 00:43:03;;;;;;;8.93;3.80;;;;;;;16.91;89.66;93886.00;5075263;28;20903;-77
2023/10/27 00:45:30;;;;;;;7.33;3.87;;;;;;;16.84;91.37;93898.38;5040250;28;20475;-77
2023/10/27 00:47:58;;;;;;;11.40;4.63;;;;;;;16.86;90.15;93899.00;5074359;28;20468;-77
2023/10/27 00:50:25;;;;;;;7.43;3.90;;;;;;;16.79;90.46;93897.31;5075130;28;20501;-78
2023/10/27 00:52:52;;;;;;;6.33;3.40;;;;;;;16.81;90.67;93890.81;5075099;28;20447;-77
2023/10/27 00:55:20;;;;;;;8.53;3.97;;;;;;;16.79;91.18;93897.31;5075018;28;20485;-77
2023/10/27 00:57:49;;;;;;;6.47;3.67;;;;;;;16.75;91.77;93894.22;5075232;28;20494;-77
2023/10/27 01:00:18;;;;;;;6.50;3.83;;;;;;;16.73;91.15;93883.81;5074912;28;20445;-77
2023/10/27 01:02:45;;;;;;;6.27;3.70;;;;;;;16.78;91.48;93893.03;5039377;28;20432;-77
2023/10/27 01:05:12;;;;;;;5.47;3.90;;;;;;;16.92;92.41;93884.97;5074579;28;20448;-77
2023/10/27 01:07:39;;;;;;;9.43;4.30;;;;;;;17.03;91.00;93887.09;5074784;28;20501;-78
2023/10/27 01:10:07;;;;;;;5.87;3.20;;;;;;;16.92;89.20;93903.53;5074569;28;20987;-77
2023/10/27 01:12:34;;;;;;;3.87;3.20;;;;;;;16.84;90.26;93908.97;5074613;28;20444;-77
2023/10/27 01:15:01;;;;;;;8.00;3.58;;;;;;;16.82;89.49;93912.84;5073723;28;20466;-78
2023/10/27 01:17:29;;;;;;;3.50;3.20;;;;;;;16.68;90.22;93907.41;5074668;28;20215;-78
2023/10/27 01:19:56;;;;;;;7.60;3.70;;;;;;;16.69;90.48;93913.53;5074427;28;20949;-77
2023/10/27 01:22:23;;;;;;;6.23;3.77;;;;;;;16.75;90.86;93912.75;5074517;28;20920;-77
2023/10/27 01:24:51;;;;;;;5.47;3.70;;;;;;;16.76;91.15;93902.97;5074235;28;20459;-77
2023/10/27 01:27:17;;;;;;;9.13;3.53;;;;;;;16.70;91.25;93910.69;5074142;28;20498;-77
2023/10/27 01:29:44;;;;;;;7.67;4.20;;;;;;;16.78;92.57;93930.13;5039257;28;20459;-77
2023/10/27 01:32:11;;;;;;;7.80;4.37;;;;;;;16.88;91.87;93935.91;5074420;28;20518;-78
2023/10/27 01:34:38;;;;;;;6.47;3.70;;;;;;;16.93;91.29;93933.50;5055420;28;20489;-77
2023/10/27 01:37:05;;;;;;;10.53;4.30;;;;;;;16.95;90.45;93937.59;5074593;28;20445;-77
2023/10/27 01:39:31;;;;;;;4.37;3.60;;;;;;;16.97;90.61;93927.63;5074412;28;20460;-77
2023/10/27 01:41:59;;;;;;;11.13;3.77;;;;;;;16.93;91.04;93931.66;5074261;28;20444;-77
2023/10/27 01:44:26;;;;;;;7.37;4.20;;;;;;;17.00;90.95;93929.88;5038824;28;20453;-77
2023/10/27 01:46:53;;;;;;;8.60;4.13;;;;;;;17.07;91.71;93932.59;5055261;28;20440;-77
2023/10/27 01:49:20;;;;;;;8.70;3.90;;;;;;;17.11;90.91;93917.13;5073839;28;20445;-77
2023/10/27 01:51:47;;;;;;;14.40;3.40;;;;;;;17.17;91.07;93930.41;5055310;28;20440;-78
2023/10/27 01:54:14;;;;;;;7.10;3.90;;;;;;;17.21;89.95;93926.38;5073739;28;20491;-77
2023/10/27 01:56:41;;;;;;;6.93;3.80;;;;;;;17.26;90.37;93920.47;5074287;28;20451;-77
2023/10/27 01:59:09;;;;;;;12.97;4.30;;;;;;;17.09;89.38;93904.06;5073258;28;20456;-78
2023/10/27 02:01:35;;;;;;;5.53;3.50;;;;;;;16.92;90.22;93900.88;5073739;28;20461;-78
2023/10/27 02:04:02;;;;;;;9.70;4.40;;;;;;;16.77;91.99;93905.47;5073736;28;20539;-78
2023/10/27 02:06:29;;;;;;;12.57;4.47;;;;;;;16.69;92.32;93902.94;5054809;28;20436;-77
2023/10/27 02:08:56;;;;;;;9.20;4.10;;;;;;;16.63;92.64;93893.91;5054917;28;20932;-78
2023/10/27 02:11:23;;;;;;;16.10;4.50;;;;;;;16.38;94.98;93895.28;5073632;28;20841;-77
2023/10/27 02:13:50;;;;;;;5.20;3.27;;;;;;;16.42;94.53;93907.16;5073703;28;21067;-78
2023/10/27 02:16:18;;;;;;;8.00;4.60;;;;;;;16.41;94.95;93886.97;5073793;28;20851;-77
2023/10/27 02:18:45;;;;;;;6.00;4.83;;;;;;;16.27;96.59;93888.69;5073707;28;20448;-78
2023/10/27 02:21:12;;;;;;;13.33;4.30;;;;;;;16.29;96.53;93913.16;5073346;28;20524;-78
2023/10/27 02:23:38;;;;;;;10.47;4.20;;;;;;;16.49;96.31;93916.00;5073370;28;20438;-77
2023/10/27 02:26:05;;;;;;;9.93;4.67;;;;;;;16.55;95.64;93898.53;5073190;28;20444;-78
2023/10/27 02:28:32;;;;;;;6.50;4.00;;;;;;;16.52;96.46;93889.13;5073109;28;20996;-78
2023/10/27 02:30:59;;;;;;;6.67;4.70;;;;;;;16.49;96.39;93888.69;5073323;28;20440;-77
2023/10/27 02:33:27;;;;;;;7.60;4.20;;;;;;;16.54;96.54;93884.47;5073040;28;20440;-77
2023/10/27 02:35:54;;;;;;;7.43;4.83;;;;;;;16.73;95.80;93880.34;5072716;28;20845;-77
2023/10/27 02:38:20;;;;;;;5.73;4.00;;;;;;;16.81;95.40;93874.09;5038036;28;20447;-78
2023/10/27 02:40:47;;;;;;;10.50;3.80;;;;;;;16.80;95.77;93875.13;5054456;28;20444;-77
2023/10/27 02:43:14;;;;;;;10.70;3.70;;;;;;;16.89;96.50;93876.59;5073450;28;20833;-78
2023/10/27 02:45:41;;;;;;;8.10;4.10;;;;;;;16.72;94.91;93868.09;5073276;28;20447;-78
2023/10/27 02:48:07;;;;;;;6.30;4.20;;;;;;;16.61;95.17;93881.84;5037881;28;20454;-77
2023/10/27 02:50:36;;;;;;;7.10;4.40;;;;;;;16.66;95.43;93890.06;5073050;28;20950;-77
2023/10/27 02:53:02;;;;;;;9.33;4.87;;;;;;;16.72;95.00;93886.66;5073022;28;20448;-77
2023/10/27 02:55:29;;;;;;;10.40;4.50;;;;;;;16.87;94.44;93883.94;5072692;28;20978;-77
2023/10/27 02:57:56;;;;;;;5.30;3.93;;;;;;;16.92;94.37;93881.50;5073086;28;20514;-76
2023/10/27 03:00:23;;;;;;;5.30;3.93;;;;;;;17.00;92.68;93884.81;5073055;28;20512;-77
2023/10/27 03:02:50;;;;;;;10.63;4.87;;;;;;;17.11;92.03;93902.03;5073013;28;20475;-76
2023/10/27 03:05:17;;;;;;;9.33;4.13;;;;;;;17.08;91.86;93906.91;5072846;28;20786;-77
2023/10/27 03:07:45;;;;;;;15.40;4.30;;;;;;;17.08;92.33;93898.97;5072923;28;20441;-77
2023/10/27 03:10:12;;;;;;;6.57;3.87;;;;;;;17.17;91.77;93906.56;5038272;28;20459;-77
2023/10/27 03:12:39;;;;;;;9.13;3.50;;;;;;;17.24;90.84;93896.00;5076904;28;20452;-77
2023/10/27 03:15:06;;;;;;;6.67;3.57;;;;;;;17.09;90.65;93888.16;5077319;28;20491;-77
2023/10/27 03:17:33;;;;;;;7.83;5.00;;;;;;;17.01;91.92;93878.50;5076888;28;20449;-77
2023/10/27 03:20:00;;;;;;;8.50;4.80;;;;;;;16.92;91.62;93886.81;5076879;28;20447;-77
2023/10/27 03:22:28;;;;;;;6.80;4.97;;;;;;;16.99;92.31;93893.78;5076856;28;20464;-77
2023/10/27 03:24:56;;;;;;;5.37;4.77;;;;;;;17.05;91.95;93889.53;5076629;28;20488;-77
2023/10/27 03:27:22;;;;;;;12.50;5.97;;;;;;;17.13;91.55;93886.75;5076634;28;20483;-77
2023/10/27 03:29:49;;;;;;;8.80;4.97;;;;;;;17.14;91.36;93893.69;5076500;28;20456;-77
2023/10/27 03:32:16;;;;;;;5.70;4.73;;;;;;;17.17;90.63;93900.44;5076747;28;20214;-77
2023/10/27 03:34:43;;;;;;;6.10;4.27;;;;;;;17.03;90.43;93888.91;5076497;28;20484;-77
2023/10/27 03:37:10;;;;;;;12.03;4.47;;;;;;;17.04;91.48;93890.56;5076337;28;20918;-77
2023/10/27 03:39:36;;;;;;;9.97;5.10;;;;;;;17.08;91.47;93897.13;5041145;28;20484;-77
2023/10/27 03:42:05;;;;;;;6.80;4.13;;;;;;;16.99;90.80;93892.97;5076596;28;20437;-77
2023/10/27 03:44:32;;;;;;;10.90;4.87;;;;;;;16.98;90.72;93878.06;5076240;28;20436;-77
2023/10/27 03:46:58;;;;;;;9.10;4.30;;;;;;;17.00;91.07;93874.22;5076115;28;20444;-77
2023/10/27 03:49:25;;;;;;;13.60;4.90;;;;;;;16.60;92.83;93878.38;5076247;28;20498;-77
2023/10/27 03:51:52;;;;;;;12.33;4.60;;;;;;;16.71;93.16;93875.25;5057355;28;20811;-77
2023/10/27 03:54:19;;;;;;;10.13;4.20;;;;;;;16.83;92.03;93877.38;5076062;28;20511;-77
2023/10/27 03:56:46;;;;;;;18.33;4.83;;;;;;;16.75;92.26;93865.06;5076028;28;20437;-77
2023/10/27 03:59:16;;;;;;;11.60;4.50;;;;;;;16.52;93.12;93849.41;5057376;28;20850;-77
2023/10/27 04:01:42;;;;;;;10.17;4.87;;;;;;;16.50;93.73;93861.19;5076192;28;20443;-77
2023/10/27 04:04:09;;;;;;;8.87;3.90;;;;;;;16.51;93.93;93850.41;5076296;28;20441;-78
2023/10/27 04:06:36;;;;;;;13.00;4.73;;;;;;;16.40;94.02;93845.63;5075866;28;20446;-77
2023/10/27 04:09:03;;;;;;;11.73;5.00;;;;;;;16.48;94.28;93842.84;5076154;28;20447;-78
2023/10/27 04:11:30;;;;;;;14.40;4.70;;;;;;;16.55;93.64;93835.78;5076120;28;20432;-78
2023/10/27 04:13:56;;;;;;;16.80;4.90;;;;;;;16.53;93.33;93827.19;5075707;28;20922;-78
2023/10/27 04:16:25;;;;;;;6.33;4.43;;;;;;;16.34;93.96;93809.31;5075684;28;20556;-77
2023/10/27 04:18:51;;;;;;;7.57;4.47;;;;;;;16.35;94.42;93803.00;5040335;28;20451;-77
2023/10/27 04:21:18;;;;;;;12.53;4.73;;;;;;;16.41;94.10;93810.19;5075161;28;20838;-73
2023/10/27 04:23:45;;;;;;;10.20;4.33;;;;;;;16.38;94.44;93797.34;5056570;28;20485;-74
2023/10/27 04:26:12;;;;;;;10.00;4.33;;;;;;;16.40;95.08;93793.47;5075440;28;20930;-74
2023/10/27 04:28:39;;;;;;;5.60;3.93;;;;;;;17.09;97.87;93790.09;5074959;28;20478;-76
2023/10/27 04:31:06;;;;;;;6.83;4.23;;;;;;;17.54;94.73;93787.81;5075372;28;20449;-76
2023/10/27 04:33:37;;;;;;;11.80;4.17;;;;;;;18.02;95.04;93785.09;5075359;28;20455;-75
2023/10/27 04:36:04;;;;;;;10.70;4.50;;;;;;;18.49;94.70;93790.19;5075099;28;20843;-80
2023/10/27 04:38:31;;;;;;;8.40;4.43;;;;;;;18.70;89.98;93780.41;5075393;28;20844;-78
2023/10/27 04:40:58;;;;;;;6.73;3.90;;;;;;;18.95;87.01;93783.22;5040038;28;20468;-79
2023/10/27 04:43:25;;;;;;;10.60;3.90;;;;;;;19.23;85.15;93788.25;5054600;28;20430;-80
2023/10/27 04:45:52;;;;;;;11.30;5.20;;;;;;;19.12;80.97;93809.19;5061735;28;20463;-76
2023/10/27 04:48:18;;;;;;;9.87;5.00;;;;;;;18.95;80.36;93809.81;5069883;28;20457;-76
2023/10/27 04:50:52;;;;;;;8.33;5.07;;;;;;;18.75;81.47;93805.34;5073460;28;20447;-76
2023/10/27 04:53:19;;;;;;;12.00;5.90;;;;;;;18.41;82.01;93803.69;5055495;28;20462;-76
2023/10/27 04:55:46;;;;;;;13.77;5.97;;;;;;;18.21;82.89;93810.81;5063225;28;20820;-76
2023/10/27 04:58:13;;;;;;;13.80;7.00;;;;;;;17.94;84.00;93818.78;5073737;28;20441;-76
2023/10/27 05:00:40;;;;;;;10.87;7.13;;;;;;;17.72;85.52;93814.63;5073214;28;20472;-76
2023/10/27 05:03:07;;;;;;;12.00;5.93;;;;;;;17.55;86.26;93814.13;5072522;28;20443;-76
2023/10/27 05:05:34;;;;;;;11.40;6.47;;;;;;;17.31;87.71;93810.16;5055134;28;20445;-76
2023/10/27 05:08:02;;;;;;;11.80;7.17;;;;;;;17.24;88.75;93804.00;5073991;28;20464;-76
2023/10/27 05:10:29;;;;;;;10.73;6.07;;;;;;;17.34;89.83;93800.97;5073564;28;20517;-76
2023/10/27 05:12:56;;;;;;;13.80;6.53;;;;;;;17.44;89.78;93817.34;5074114;28;20437;-75
2023/10/27 05:15:23;;;;;;;11.13;6.00;;;;;;;17.50;88.83;93815.75;5073926;28;20502;-75
2023/10/27 05:17:49;;;;;;;14.43;6.07;;;;;;;17.51;88.57;93809.41;5074050;28;20452;-76
2023/10/27 05:20:16;;;;;;;22.27;6.73;;;;;;;17.52;88.34;93808.41;5073836;28;20809;-75
2023/10/27 05:22:43;;;;;;;12.97;6.97;;;;;;;17.48;88.68;93804.53;5074022;28;20775;-76
2023/10/27 05:25:11;;;;;;;9.67;6.30;;;;;;;17.44;89.16;93808.59;5074179;28;20456;-75
2023/10/27 05:27:38;;;;;;;9.97;5.07;;;;;;;17.43;88.43;93799.00;5073396;28;20527;-75
2023/10/27 05:30:06;;;;;;;10.40;4.47;;;;;;;17.42;88.91;93806.13;5074039;28;20531;-76
2023/10/27 05:32:34;;;;;;;8.13;4.87;;;;;;;17.45;88.89;93810.22;5073148;28;20441;-75
2023/10/27 05:35:00;;;;;;;9.60;4.17;;;;;;;17.46;89.04;93798.59;5073553;28;21110;-76
2023/10/27 05:37:27;;;;;;;17.87;4.97;;;;;;;17.44;89.48;93801.44;5074019;28;20952;-75
2023/10/27 05:39:54;;;;;;;11.63;6.53;;;;;;;17.48;89.27;93804.53;5073860;28;20437;-75
2023/10/27 05:42:22;;;;;;;14.83;5.83;;;;;;;17.46;89.27;93796.75;5073400;28;20448;-76
2023/10/27 05:44:49;;;;;;;10.67;7.03;;;;;;;17.50;88.96;93800.66;5073942;28;20448;-77
2023/10/27 05:47:16;;;;;;;7.53;5.00;;;;;;;17.51;88.70;93798.81;5073917;28;20449;-76
2023/10/27 05:49:43;;;;;;;7.63;5.87;;;;;;;17.50;89.17;93802.47;5073631;28;20445;-76
2023/10/27 05:52:09;;;;;;;10.43;5.93;;;;;;;17.62;88.70;93806.19;5073190;28;20429;-76
2023/10/27 05:54:36;;;;;;;6.63;4.37;;;;;;;17.83;88.48;93795.47;5072822;28;20451;-76
2023/10/27 05:57:04;;;;;;;8.37;3.90;;;;;;;17.92;86.56;93799.56;5073026;28;20779;-76
2023/10/27 05:59:32;;;;;;;8.60;4.50;;;;;;;17.99;86.67;93799.59;5037902;28;20800;-76
2023/10/27 06:01:59;;;;;;;12.60;5.33;;;;;;;18.01;86.25;93794.06;5072267;28;20462;-76
2023/10/27 06:04:25;;;;;;;6.47;4.03;;;;;;;18.11;87.43;93818.38;5053814;28;20445;-76
2023/10/27 06:06:52;;;;;;;11.47;5.30;;;;;;;18.07;85.70;93802.03;5073155;28;20449;-75
2023/10/27 06:09:19;;;;;;;9.30;4.10;;;;;;;17.94;85.15;93813.47;5073088;28;20448;-75
2023/10/27 06:11:46;;;;;;;6.17;4.30;;;;;;;17.83;86.22;93822.00;5072730;28;20446;-76
2023/10/27 06:14:12;;;;;;;8.33;5.90;;;;;;;17.75;86.68;93821.38;5072343;28;20496;-75
2023/10/27 06:16:41;;;;;;;8.10;4.83;;;;;;;17.59;88.46;93825.16;5072355;28;20576;-75
2023/10/27 06:19:07;;;;;;;11.87;4.30;;;;;;;17.52;88.66;93829.63;5073101;28;20458;-76
2023/10/27 06:21:34;;;;;;;8.10;4.80;;;;;;;17.54;88.69;93838.19;5072760;28;20939;-75
2023/10/27 06:24:01;;;;;;;9.83;4.80;;;;;;;17.56;88.58;93850.25;5072833;28;20912;-76
2023/10/27 06:26:29;;;;;;;16.37;5.93;;;;;;;17.61;90.13;93855.78;5073019;28;20456;-79
2023/10/27 06:28:56;;;;;;;10.73;6.33;;;;;;;17.64;89.28;93847.44;5072933;28;20471;-76
2023/10/27 06:31:23;;;;;;;11.87;6.87;;;;;;;17.76;89.87;93841.59;5054120;28;20433;-76
2023/10/27 06:33:51;;;;;;;14.67;5.80;;;;;;;17.85;94.06;93853.66;5072666;28;20796;-76
2023/10/27 06:36:18;;;;;;;9.83;4.37;;;;;;;17.81;88.27;93866.50;5072128;28;20487;-76
2023/10/27 06:38:45;;;;;;;20.23;5.63;;;;;;;17.91;89.11;93864.28;5071277;28;20933;-76
2023/10/27 06:41:11;;;;;;;7.43;4.10;;;;;;;17.91;87.11;93874.06;5072514;28;20842;-76
2023/10/27 06:43:38;;;;;;;5.90;3.80;;;;;;;17.88;86.14;93871.81;5072906;28;20446;-75
2023/10/27 06:46:05;;;;;;;7.47;3.97;;;;;;;17.97;87.88;93861.88;5072118;28;20980;-77
2023/10/27 06:48:32;;;;;;;10.93;4.53;;;;;;;18.09;88.19;93862.91;5072778;28;20441;-77
2023/10/27 06:51:00;;;;;;;12.83;4.10;;;;;;;18.18;85.69;93851.06;5037798;28;20445;-76
2023/10/27 06:53:27;;;;;;;16.90;4.70;;;;;;;18.34;85.90;93834.75;5072572;28;20451;-76
2023/10/27 06:55:53;;;;;;;8.13;3.97;;;;;;;18.37;85.32;93833.53;5072836;28;20495;-78
2023/10/27 06:58:20;;;;;;;9.40;4.83;;;;;;;18.55;87.60;93847.03;5072375;28;20445;-77
2023/10/27 07:00:47;;;;;;;8.80;4.10;;;;;;;18.63;87.60;93840.72;5071672;28;20458;-77
2023/10/27 07:03:14;;;;;;;6.00;4.33;;;;;;;18.74;84.95;93840.91;5072421;28;20455;-76
2023/10/27 07:05:40;;;;;;;14.80;4.23;;;;;;;18.76;89.51;93833.53;5071682;28;20513;-75
2023/10/27 07:08:09;;;;;;;8.13;4.27;;;;;;;19.24;89.40;93843.91;5033021;28;21134;-74
2023/10/27 07:10:36;;;;;;;9.83;5.40;;;;;;;19.67;85.73;93848.72;5052075;28;20845;-77
2023/10/27 07:13:03;;;;;;;13.90;7.07;;;;;;;19.70;80.70;93841.13;5052814;28;20949;-77
2023/10/27 07:15:30;;;;;;;12.13;6.10;;;;;;;19.65;79.59;93835.59;5052382;28;20499;-77
2023/10/27 07:17:57;;;;;;;9.77;5.50;;;;;;;19.66;81.86;93829.28;5033787;28;20438;-76
2023/10/27 07:20:24;;;;;;;8.60;4.90;;;;;;;19.71;81.48;93837.44;5052688;28;20442;-78
2023/10/27 07:22:50;;;;;;;10.77;5.57;;;;;;;19.73;80.55;93838.06;5052756;28;20437;-76
2023/10/27 07:25:19;;;;;;;8.17;6.27;;;;;;;19.65;80.09;93832.94;5070883;28;20437;-77
2023/10/27 07:27:45;;;;;;;20.13;10.07;;;;;;;19.57;79.96;93837.69;5072542;28;20826;-78
2023/10/27 07:30:13;;;;;;;19.47;13.30;;;;;;;19.58;80.83;93834.81;5072445;28;20805;-78
2023/10/27 07:32:40;;;;;;;29.20;17.10;;;;;;;19.58;82.10;93839.31;5072496;28;20447;-78
2023/10/27 07:35:08;;;;;;;15.03;9.50;;;;;;;19.58;80.11;93834.81;5072922;28;20912;-78
2023/10/27 07:37:35;;;;;;;17.03;6.90;;;;;;;19.59;79.97;93833.78;5072547;28;20444;-78
2023/10/27 07:40:03;;;;;;;14.77;8.13;;;;;;;19.47;80.39;93833.63;5071824;28;20456;-78
2023/10/27 07:42:32;;;;;;;18.33;9.43;;;;;;;19.50;84.08;93851.81;5072045;28;20455;-78
2023/10/27 07:44:59;;;;;;;10.27;5.87;;;;;;;19.42;81.41;93848.59;5072390;28;20459;-78
2023/10/27 07:47:25;;;;;;;33.53;14.43;;;;;;;19.41;81.12;93846.94;5071865;28;20464;-78
2023/10/27 07:49:54;;;;;;;29.33;12.77;;;;;;;19.44;81.42;93850.00;5071625;28;20887;-78
2023/10/27 07:52:20;;;;;;;17.07;6.47;;;;;;;19.41;81.59;93853.09;5071657;28;20459;-77
2023/10/27 07:54:47;;;;;;;13.30;6.03;;;;;;;19.56;82.80;93842.19;5071768;28;20840;-78
2023/10/27 07:57:14;;;;;;;11.93;6.93;;;;;;;19.67;81.82;93846.88;5074171;28;20487;-77
2023/10/27 07:59:42;;;;;;;17.30;6.50;;;;;;;19.70;80.59;93857.09;5075378;28;20444;-78
2023/10/27 08:02:09;;;;;;;10.87;5.90;;;;;;;19.76;79.50;93855.44;5075505;28;20531;-78
2023/10/27 08:04:37;;;;;;;8.80;5.60;;;;;;;19.92;81.08;93859.44;5075289;28;20449;-78
2023/10/27 08:07:04;;;;;;;18.17;6.53;;;;;;;20.04;79.50;93847.13;5075607;28;20445;-77
2023/10/27 08:09:31;;;;;;;16.70;6.17;;;;;;;20.07;78.91;93849.34;5075426;28;20441;-78
2023/10/27 08:11:58;;;;;;;18.20;6.60;;;;;;;20.01;77.30;93834.22;5075640;28;20470;-78
2023/10/27 08:14:25;;;;;;;37.77;17.67;;;;;;;20.01;77.45;93819.06;5056113;28;20439;-78
2023/10/27 08:16:54;;;;;;;26.40;11.67;;;;;;;20.05;78.66;93812.28;5075179;28;20476;-78
2023/10/27 08:19:20;;;;;;;14.33;7.23;;;;;;;20.19;78.23;93812.19;5075005;28;20873;-77
2023/10/27 08:21:48;;;;;;;13.03;6.30;;;;;;;20.39;76.93;93821.69;5075401;28;20454;-77
2023/10/27 08:24:16;;;;;;;29.77;11.93;;;;;;;20.58;77.48;93819.94;5075072;28;20450;-77
2023/10/27 08:26:44;;;;;;;14.17;8.67;;;;;;;20.70;75.91;93809.38;5074562;28;20816;-77
2023/10/27 08:29:11;;;;;;;15.07;6.97;;;;;;;20.91;75.78;93805.50;5074786;28;20517;-77
2023/10/27 08:31:38;;;;;;;12.17;6.13;;;;;;;21.00;72.86;93801.50;5075162;28;20442;-77
2023/10/27 08:34:10;;;;;;;10.53;5.67;;;;;;;20.95;72.88;93804.84;5075078;28;20470;-77
2023/10/27 08:36:37;;;;;;;10.47;5.57;;;;;;;20.96;74.97;93793.13;5074791;28;20485;-77
2023/10/27 08:39:04;;;;;;;9.40;5.83;;;;;;;21.02;75.59;93796.75;5074753;28;20447;-77
2023/10/27 08:41:31;;;;;;;24.20;9.07;;;;;;;20.91;74.81;93795.66;5074884;28;20448;-77
2023/10/27 08:43:59;;;;;;;11.03;7.20;;;;;;;20.94;76.43;93813.06;5074639;28;20453;-77
2023/10/27 08:46:27;;;;;;;8.60;5.80;;;;;;;20.81;74.18;93819.31;5074093;28;20443;-77
2023/10/27 08:48:55;;;;;;;9.63;5.87;;;;;;;20.73;74.77;93803.59;5074603;28;20479;-77
2023/10/27 08:51:23;;;;;;;14.80;5.70;;;;;;;20.80;76.48;93815.00;5074524;28;20528;-77
2023/10/27 08:53:51;;;;;;;9.67;6.10;;;;;;;20.90;77.74;93814.53;5074337;28;20855;-78
2023/10/27 08:56:18;;;;;;;11.60;4.77;;;;;;;20.81;74.72;93808.63;5074493;28;20998;-78
2023/10/27 08:58:50;;;;;;;16.20;5.60;;;;;;;20.89;76.85;93818.22;5074209;28;20444;-77
2023/10/27 09:01:16;;;;;;;10.93;4.33;;;;;;;20.93;73.84;93811.44;5074191;28;21002;-78
2023/10/27 09:04:06;;;;;;;5.43;2.80;;;;;;;20.99;66.62;93800.69;5074351;28;20439;-78
2023/10/27 09:06:35;;;;;;;5.00;3.33;;;;;;;21.24;65.74;93810.53;5074044;28;20497;-77
2023/10/27 09:09:01;;;;;;;7.27;3.80;;;;;;;21.25;68.78;93806.81;5073134;28;20452;-78
2023/10/27 09:11:28;;;;;;;11.17;3.67;;;;;;;21.12;69.69;93791.75;5073768;28;20442;-78
2023/10/27 09:13:55;;;;;;;9.00;4.20;;;;;;;21.29;70.75;93792.81;5073940;28;20956;-77
2023/10/27 09:16:26;;;;;;;6.97;3.57;;;;;;;21.51;70.60;93795.84;5073948;28;20494;-77
2023/10/27 09:18:55;;;;;;;5.97;3.77;;;;;;;21.64;70.49;93801.00;5073957;28;20444;-77
2023/10/27 09:21:32;;;;;;;6.00;3.13;;;;;;;21.73;66.02;93792.72;5073877;28;20456;-77
2023/10/27 09:24:00;;;;;;;9.17;3.43;;;;;;;21.84;66.43;93773.25;5073624;28;20460;-77
2023/10/27 09:26:29;;;;;;;7.07;3.27;;;;;;;21.86;65.53;93755.13;5074153;28;20454;-77
2023/10/27 09:29:03;;;;;;;5.63;3.10;;;;;;;21.93;65.02;93766.53;5073728;28;21012;-77
2023/10/27 09:31:34;;;;;;;6.10;2.30;;;;;;;21.96;63.21;93736.69;5038833;28;20449;-78
2023/10/27 09:34:17;;;;;;;5.33;2.70;;;;;;;21.96;62.95;93752.72;5073868;28;20586;-77
2023/10/27 09:36:45;;;;;;;4.83;2.30;;;;;;;22.06;61.36;93739.66;5073198;28;20538;-77
2023/10/27 09:39:18;;;;;;;4.63;2.67;;;;;;;22.13;61.56;93745.72;5073703;28;20448;-77
2023/10/27 09:41:47;;;;;;;4.80;2.33;;;;;;;22.18;61.52;93724.47;5039581;28;20444;-77
2023/10/27 09:44:16;;;;;;;6.37;2.47;;;;;;;22.25;62.47;93719.00;5073454;28;20481;-77
2023/10/27 09:46:52;;;;;;;9.40;2.90;;;;;;;22.36;61.90;93725.44;5073342;28;20446;-77
2023/10/27 09:49:28;;;;;;;4.27;2.40;;;;;;;22.42;60.60;93708.47;5073515;28;20442;-77
2023/10/27 09:51:59;;;;;;;3.70;2.50;;;;;;;22.45;58.89;93713.34;5073501;28;20451;-78
2023/10/27 09:54:31;;;;;;;7.57;2.73;;;;;;;22.44;57.24;93711.72;5073348;28;20499;-77
2023/10/27 09:56:59;;;;;;;4.43;2.63;;;;;;;22.50;57.13;93718.81;5072902;28;20854;-76
2023/10/27 09:59:27;;;;;;;3.87;2.70;;;;;;;22.56;57.47;93705.34;5072875;28;20486;-77
2023/10/27 10:01:55;;;;;;;6.40;2.00;;;;;;;22.56;55.82;93705.34;5073254;28;20451;-77
2023/10/27 10:05:00;;;;;;;4.70;2.17;;;;;;;22.62;57.15;93690.22;5073082;28;20442;-77
2023/10/27 10:07:34;;;;;;;4.40;3.03;;;;;;;22.58;55.20;93685.59;5072757;28;20839;-77
2023/10/27 10:10:30;;;;;;;4.40;2.40;;;;;;;22.61;55.76;93704.66;5072605;28;20445;-77
2023/10/27 10:13:08;;;;;;;4.50;2.43;;;;;;;22.56;56.40;93683.16;5072974;28;20507;-77
2023/10/27 10:15:36;;;;;;;4.07;1.90;;;;;;;22.61;55.61;93672.56;5072519;28;20454;-77
2023/10/27 10:18:04;;;;;;;3.83;2.67;;;;;;;22.59;56.09;93700.59;5072740;28;20490;-77
2023/10/27 10:20:56;;;;;;;2.50;2.30;;;;;;;22.52;54.90;93687.31;5072461;28;20451;-78
2023/10/27 10:23:24;;;;;;;2.83;2.13;;;;;;;22.59;55.39;93711.28;5072715;28;20443;-77
2023/10/27 10:25:54;;;;;;;4.90;2.33;;;;;;;22.65;56.62;93724.53;5072909;28;20451;-78
2023/10/27 10:28:29;;;;;;;6.50;1.70;;;;;;;22.62;56.06;93710.81;5072232;28;20474;-77
2023/10/27 10:31:27;;;;;;;2.30;2.03;;;;;;;22.49;55.35;93701.13;5072572;28;20528;-77
2023/10/27 10:34:11;;;;;;;6.80;1.93;;;;;;;22.48;56.23;93712.88;5072484;28;20454;-77
2023/10/27 10:36:38;;;;;;;2.30;2.00;;;;;;;22.52;55.66;93700.69;5072435;28;20491;-78
2023/10/27 10:39:05;;;;;;;6.00;3.60;;;;;;;22.54;56.38;93728.00;5072140;28;20439;-77
2023/10/27 10:42:01;;;;;;;3.00;2.27;;;;;;;22.57;56.81;93714.19;5072384;28;20952;-77
2023/10/27 10:44:32;;;;;;;4.00;2.07;;;;;;;22.55;55.25;93695.69;5072451;28;20441;-77
2023/10/27 10:47:06;;;;;;;2.10;1.90;;;;;;;22.56;54.97;93701.88;5038192;28;20440;-77
2023/10/27 10:49:33;;;;;;;3.20;2.20;;;;;;;22.53;55.71;93697.75;5072144;28;20450;-77
2023/10/27 10:52:01;;;;;;;2.57;2.37;;;;;;;22.54;56.27;93690.56;5072587;28;20452;-77
2023/10/27 10:54:32;;;;;;;4.40;2.23;;;;;;;22.58;54.66;93689.06;5053283;28;20430;-77
2023/10/27 10:57:07;;;;;;;4.37;2.03;;;;;;;22.62;54.45;93690.22;5072434;28;20490;-77
2023/10/27 10:59:35;;;;;;;3.97;1.97;;;;;;;22.60;54.86;93703.03;5072093;28;20447;-76
2023/10/27 11:02:04;;;;;;;6.40;2.57;;;;;;;22.64;55.03;93695.34;5072182;28;21040;-78
2023/10/27 11:04:35;;;;;;;9.43;2.70;;;;;;;22.66;55.40;93718.13;5072265;28;20442;-77
2023/10/27 11:07:03;;;;;;;6.90;2.33;;;;;;;22.65;54.98;93694.31;5037389;28;20455;-77
2023/10/27 11:09:31;;;;;;;3.90;1.90;;;;;;;22.72;55.19;93694.97;5072173;28;20441;-77
2023/10/27 11:11:58;;;;;;;7.53;2.27;;;;;;;22.72;55.17;93668.25;5072141;28;20450;-77
2023/10/27 11:14:27;;;;;;;4.50;2.37;;;;;;;22.70;54.40;93692.53;5053300;28;20437;-77
2023/10/27 11:17:01;;;;;;;6.70;1.93;;;;;;;22.76;54.69;93699.63;5072083;28;20485;-77
2023/10/27 11:19:28;;;;;;;2.90;2.13;;;;;;;22.79;54.45;93674.28;5071814;28;20439;-77
2023/10/27 11:21:55;;;;;;;4.87;2.40;;;;;;;22.85;54.70;93670.72;5072096;28;20451;-77
2023/10/27 11:24:23;;;;;;;4.20;2.40;;;;;;;22.81;55.15;93666.84;5071884;28;20446;-77
2023/10/27 11:26:50;;;;;;;6.27;2.40;;;;;;;22.81;54.96;93680.22;5071447;28;20895;-77
2023/10/27 11:29:17;;;;;;;4.60;2.07;;;;;;;22.81;55.11;93662.31;5071922;28;20446;-77
2023/10/27 11:31:47;;;;;;;5.23;1.73;;;;;;;22.84;54.41;93666.38;5073751;28;20435;-77
2023/10/27 11:34:20;;;;;;;2.73;1.70;;;;;;;22.80;54.88;93655.31;5075876;28;20450;-77